Time;durP1;ratioP1;P1;durP2;ratioP2;P2;SDS_P1;SDS_P2;PMS_P1;PMS_P2;Temp;Humidity;BMP_temperature;BMP_pressure;BME280_temperature;BME280_humidity;BME280_pressure;Samples;Min_cycle;Max_cycle;Signal;HPM_P1;HPM_P2
2022/06/05 00:01:59;;;;;;;20.88;11.65;;;;;;;15.19;60.29;102013.97;5171564;28;20514;-58
2022/06/05 00:04:43;;;;;;;18.00;11.63;;;;;;;15.18;60.32;102005.16;5175286;28;20426;-51
2022/06/05 00:07:25;;;;;;;25.00;12.30;;;;;;;15.17;60.40;101998.19;5174263;28;20423;-52
2022/06/05 00:10:10;;;;;;;17.65;12.15;;;;;;;14.96;60.70;101979.84;5170623;28;20428;-53
2022/06/05 00:12:55;;;;;;;15.90;11.98;;;;;;;14.64;60.61;101923.63;5170923;28;21049;-55
2022/06/05 00:15:28;;;;;;;18.85;12.60;;;;;;;15.07;60.48;101978.75;5170384;28;20427;-54
2022/06/05 00:18:01;;;;;;;16.60;12.30;;;;;;;15.09;60.70;101979.47;5174282;28;20505;-53
2022/06/05 00:20:33;;;;;;;18.80;12.10;;;;;;;15.02;60.80;101975.75;5163957;28;20776;-54
2022/06/05 00:23:05;;;;;;;20.48;11.93;;;;;;;14.93;60.67;101950.03;5171960;28;20796;-54
2022/06/05 00:25:48;;;;;;;17.48;12.45;;;;;;;15.07;60.83;101981.41;5175393;28;20442;-55
2022/06/05 00:28:29;;;;;;;18.15;12.05;;;;;;;15.08;60.71;101988.44;5179139;28;20435;-53
2022/06/05 00:31:13;;;;;;;21.35;13.32;;;;;;;15.10;60.70;101991.75;5178415;28;20442;-58
2022/06/05 00:33:46;;;;;;;17.23;11.40;;;;;;;15.09;60.83;101987.44;5176784;28;20411;-55
2022/06/05 00:36:34;;;;;;;20.58;12.35;;;;;;;15.07;60.92;101992.06;5176089;28;20444;-55
2022/06/05 00:39:15;;;;;;;18.33;12.32;;;;;;;15.03;60.90;101974.75;5176936;28;20455;-52
2022/06/05 00:41:58;;;;;;;19.25;12.32;;;;;;;15.07;60.95;101980.59;5178120;28;20814;-54
2022/06/05 00:44:36;;;;;;;18.47;11.73;;;;;;;14.96;60.98;101960.38;5176063;28;20458;-51
2022/06/05 00:47:13;;;;;;;15.50;11.70;;;;;;;14.93;61.03;101961.50;5182061;28;20786;-53
2022/06/05 00:49:52;;;;;;;21.60;13.00;;;;;;;14.91;61.15;101955.50;5174702;28;20878;-56
2022/06/05 00:52:29;;;;;;;21.48;12.20;;;;;;;15.01;61.11;101959.91;5173079;28;20832;-54
2022/06/05 00:55:02;;;;;;;23.00;13.20;;;;;;;14.96;61.18;101957.72;5176343;28;20580;-51
2022/06/05 00:57:37;;;;;;;19.90;12.88;;;;;;;14.93;61.20;101944.72;5174760;28;20424;-54
2022/06/05 01:00:17;;;;;;;19.38;13.07;;;;;;;14.82;61.24;101935.13;5178865;28;20494;-53
2022/06/05 01:02:52;;;;;;;17.80;12.80;;;;;;;14.89;61.09;101952.16;5176910;28;20933;-55
2022/06/05 01:05:28;;;;;;;22.30;14.00;;;;;;;14.83;61.43;101936.78;5171110;28;21243;-56
2022/06/05 01:08:01;;;;;;;19.95;12.68;;;;;;;14.88;61.47;101933.69;5174544;28;20447;-55
2022/06/05 01:10:53;;;;;;;23.58;13.35;;;;;;;14.87;61.41;101910.75;5178392;28;20502;-53
2022/06/05 01:14:07;;;;;;;18.80;13.98;;;;;;;14.83;61.50;101904.03;5179218;28;20413;-53
2022/06/05 01:16:50;;;;;;;24.38;13.35;;;;;;;14.78;61.60;101901.03;5173461;28;20712;-54
2022/06/05 01:19:41;;;;;;;23.70;14.00;;;;;;;14.79;61.65;101908.00;5174156;28;20434;-55
2022/06/05 01:22:42;;;;;;;22.70;13.13;;;;;;;14.79;61.65;101908.00;5173483;28;20411;-52
2022/06/05 01:25:42;;;;;;;21.52;13.30;;;;;;;14.47;61.91;101888.03;5171543;28;20438;-54
2022/06/05 01:28:20;;;;;;;21.33;13.32;;;;;;;14.75;61.83;101918.94;5176821;28;20422;-50
2022/06/05 01:31:13;;;;;;;23.37;13.03;;;;;;;14.72;61.80;101919.25;5172594;28;20554;-50
2022/06/05 01:33:56;;;;;;;23.80;13.77;;;;;;;14.70;62.04;101910.56;5178569;28;20774;-51
2022/06/05 01:36:36;;;;;;;20.75;13.13;;;;;;;14.67;62.14;101908.22;5175148;28;20883;-50
2022/06/05 01:39:15;;;;;;;21.92;13.30;;;;;;;14.61;62.06;101906.16;5177773;28;20422;-51
2022/06/05 01:41:52;;;;;;;18.00;13.25;;;;;;;14.64;62.14;101911.16;5173992;28;20419;-54
2022/06/05 01:44:39;;;;;;;23.80;14.07;;;;;;;14.59;62.28;101913.47;5174506;28;20492;-53
2022/06/05 01:47:19;;;;;;;20.38;13.50;;;;;;;14.60;62.21;101909.81;5176787;28;20765;-54
2022/06/05 01:49:57;;;;;;;23.88;14.85;;;;;;;14.42;62.21;101885.81;5171146;28;20438;-48
2022/06/05 01:52:34;;;;;;;19.73;13.85;;;;;;;14.65;62.27;101920.84;5171884;28;20434;-51
2022/06/05 01:55:11;;;;;;;24.73;14.88;;;;;;;14.60;62.27;101915.13;5174059;28;20423;-55
2022/06/05 01:57:45;;;;;;;18.23;13.57;;;;;;;14.51;62.21;101897.41;5174828;28;20502;-53
2022/06/05 02:00:21;;;;;;;23.70;12.98;;;;;;;14.68;62.23;101915.22;5175476;28;20415;-54
2022/06/05 02:02:58;;;;;;;26.33;14.73;;;;;;;14.67;62.42;101932.13;5169810;28;20432;-58
2022/06/05 02:05:37;;;;;;;23.15;13.52;;;;;;;14.67;62.35;101904.72;5174431;28;20433;-54
2022/06/05 02:08:14;;;;;;;22.08;15.05;;;;;;;14.63;62.38;101896.22;5177807;28;20460;-55
2022/06/05 02:10:51;;;;;;;23.58;14.40;;;;;;;14.65;62.42;101904.88;5173029;28;20431;-57
2022/06/05 02:13:25;;;;;;;21.23;14.95;;;;;;;14.61;62.63;101887.53;5173965;28;20424;-60
2022/06/05 02:15:58;;;;;;;19.17;14.27;;;;;;;14.60;62.61;101895.69;5173633;28;20620;-58
2022/06/05 02:18:31;;;;;;;20.08;13.27;;;;;;;14.61;62.67;101892.84;5177526;28;20506;-59
2022/06/05 02:21:05;;;;;;;21.08;14.23;;;;;;;14.60;62.60;101877.06;5174249;28;20424;-58
2022/06/05 02:23:40;;;;;;;18.23;13.48;;;;;;;14.59;62.63;101881.56;5174771;28;20435;-56
2022/06/05 02:26:13;;;;;;;20.63;14.25;;;;;;;14.59;62.64;101875.41;5176849;28;20417;-55
2022/06/05 02:28:46;;;;;;;18.90;14.98;;;;;;;14.56;62.68;101865.91;5177617;28;20419;-54
2022/06/05 02:31:31;;;;;;;17.42;13.27;;;;;;;14.53;62.80;101860.88;5175498;28;20418;-53
2022/06/05 02:34:16;;;;;;;24.55;14.13;;;;;;;14.57;62.68;101856.94;5173231;28;20525;-55
2022/06/05 02:36:59;;;;;;;19.10;13.50;;;;;;;14.59;62.68;101844.34;5174154;28;20761;-53
2022/06/05 02:39:43;;;;;;;19.93;13.93;;;;;;;14.57;62.64;101835.66;5176011;28;20421;-52
2022/06/05 02:42:29;;;;;;;21.75;14.18;;;;;;;14.60;62.66;101840.69;5174860;28;20415;-54
2022/06/05 02:45:15;;;;;;;22.60;14.77;;;;;;;14.51;62.56;101830.97;5173151;28;20457;-53
2022/06/05 02:47:54;;;;;;;21.08;13.43;;;;;;;14.41;62.74;101823.03;5171571;28;20422;-54
2022/06/05 02:50:31;;;;;;;21.80;14.02;;;;;;;14.62;62.76;101838.72;5172573;28;20457;-54
2022/06/05 02:53:07;;;;;;;23.52;14.60;;;;;;;14.67;62.70;101830.28;5175267;28;20409;-55
2022/06/05 02:55:40;;;;;;;22.13;13.70;;;;;;;14.66;62.65;101829.44;5179193;28;20800;-52
2022/06/05 02:58:14;;;;;;;21.40;15.13;;;;;;;14.60;62.81;101810.59;5174984;28;20417;-52
2022/06/05 03:03:34;;;;;;;21.47;15.23;;;;;;;14.62;62.80;101801.50;5171648;28;20449;-51
2022/06/05 03:06:06;;;;;;;22.92;14.23;;;;;;;14.67;62.87;101812.50;5173387;28;20523;-54
2022/06/05 03:08:38;;;;;;;20.77;14.20;;;;;;;14.68;62.78;101816.84;5179562;28;20880;-56
2022/06/05 03:11:12;;;;;;;24.83;14.48;;;;;;;14.70;62.82;101817.50;5169823;28;20421;-54
2022/06/05 03:13:44;;;;;;;19.85;13.57;;;;;;;14.69;62.79;101815.84;5175223;28;20423;-53
2022/06/05 03:16:18;;;;;;;22.90;14.93;;;;;;;14.70;62.86;101812.19;5178071;28;20426;-54
2022/06/05 03:18:51;;;;;;;24.15;15.10;;;;;;;14.73;62.85;101808.38;5172157;28;20437;-52
2022/06/05 03:21:24;;;;;;;21.90;14.55;;;;;;;14.72;62.77;101788.94;5173127;28;20411;-55
2022/06/05 03:23:56;;;;;;;25.70;14.55;;;;;;;14.84;62.62;101804.66;5176725;28;20426;-55
2022/06/05 03:26:28;;;;;;;20.73;15.48;;;;;;;14.78;62.70;101781.34;5175197;28;20523;-55
2022/06/05 03:29:01;;;;;;;25.40;15.30;;;;;;;14.74;62.83;101784.31;5175887;28;20407;-54
2022/06/05 03:31:35;;;;;;;23.67;15.53;;;;;;;14.86;62.66;101792.03;5177598;28;20439;-53
2022/06/05 03:34:08;;;;;;;23.23;15.20;;;;;;;14.84;62.87;101778.06;5173237;28;20597;-51
2022/06/05 03:36:40;;;;;;;20.60;14.75;;;;;;;14.76;62.92;101769.03;5181635;28;20432;-54
2022/06/05 03:39:13;;;;;;;21.95;14.63;;;;;;;14.85;62.71;101769.09;5171408;28;20418;-53
2022/06/05 03:41:45;;;;;;;22.70;14.95;;;;;;;14.83;62.84;101763.91;5176224;28;20500;-53
2022/06/05 03:44:17;;;;;;;24.27;14.35;;;;;;;14.90;62.79;101777.47;5173934;28;20418;-53
2022/06/05 03:46:51;;;;;;;19.92;14.40;;;;;;;14.89;62.76;101767.78;5175064;28;20412;-53
2022/06/05 03:49:24;;;;;;;23.98;14.50;;;;;;;14.88;62.77;101763.47;5169677;28;20419;-54
2022/06/05 03:51:56;;;;;;;23.55;15.48;;;;;;;14.89;62.79;101765.97;5176751;28;20524;-53
2022/06/05 03:54:28;;;;;;;20.98;14.40;;;;;;;14.89;62.80;101754.50;5177823;28;20511;-52
2022/06/05 03:57:01;;;;;;;22.52;14.57;;;;;;;14.87;63.01;101752.00;5179930;28;20414;-51
2022/06/05 03:59:35;;;;;;;23.55;14.88;;;;;;;14.83;63.07;101745.31;5181191;28;20457;-50
2022/06/05 04:02:09;;;;;;;21.75;15.10;;;;;;;14.91;62.95;101757.84;5179772;28;20508;-52
2022/06/05 04:04:42;;;;;;;19.02;14.20;;;;;;;14.95;62.88;101756.53;5181442;28;20510;-54
2022/06/05 04:07:14;;;;;;;19.20;13.73;;;;;;;14.99;62.88;101749.94;5178728;28;21242;-53
2022/06/05 04:09:46;;;;;;;21.15;13.80;;;;;;;14.98;62.84;101745.56;5174423;28;20412;-52
2022/06/05 04:12:20;;;;;;;19.30;13.70;;;;;;;14.93;62.92;101734.59;5176152;28;20506;-50
2022/06/05 04:14:53;;;;;;;24.70;14.98;;;;;;;14.88;62.94;101742.19;5176443;28;20990;-58
2022/06/05 04:17:26;;;;;;;19.65;14.55;;;;;;;14.95;62.79;101749.38;5177780;28;20510;-54
2022/06/05 04:19:59;;;;;;;21.95;14.88;;;;;;;14.92;63.05;101743.53;5178569;28;20557;-53
2022/06/05 04:22:31;;;;;;;19.70;14.10;;;;;;;14.92;63.09;101740.88;5175773;28;20490;-54
2022/06/05 04:25:06;;;;;;;21.50;15.23;;;;;;;14.92;63.08;101733.72;5180182;28;20913;-52
2022/06/05 04:27:39;;;;;;;22.73;15.30;;;;;;;14.97;63.06;101742.09;5177936;28;20576;-53
2022/06/05 04:30:12;;;;;;;23.38;14.70;;;;;;;15.00;62.98;101732.97;5176676;28;20426;-51
2022/06/05 04:32:46;;;;;;;23.50;14.95;;;;;;;14.98;63.06;101732.28;5179539;28;20891;-52
2022/06/05 04:35:18;;;;;;;22.13;16.13;;;;;;;15.00;63.03;101730.31;5177952;28;20429;-55
2022/06/05 04:37:51;;;;;;;20.40;14.13;;;;;;;14.99;63.08;101733.97;5179235;28;20817;-54
2022/06/05 04:40:23;;;;;;;24.30;15.18;;;;;;;14.84;63.06;101708.94;5174809;28;20416;-55
2022/06/05 04:42:55;;;;;;;21.45;14.18;;;;;;;14.99;63.17;101736.63;5175448;28;20573;-54
2022/06/05 04:45:28;;;;;;;18.55;14.32;;;;;;;14.97;63.18;101730.63;5178711;28;20451;-55
2022/06/05 04:48:02;;;;;;;24.17;14.00;;;;;;;14.53;62.92;101659.69;5181525;28;21009;-52
2022/06/05 04:50:34;;;;;;;23.13;15.93;;;;;;;14.87;63.11;101697.97;5167448;28;20423;-54
2022/06/05 04:53:07;;;;;;;23.38;15.27;;;;;;;14.97;63.16;101718.16;5177039;28;20949;-52
2022/06/05 04:55:40;;;;;;;22.00;15.07;;;;;;;14.98;63.24;101721.63;5175108;28;20428;-56
2022/06/05 04:58:12;;;;;;;23.00;14.85;;;;;;;14.93;63.35;101700.00;5180258;28;20467;-55
2022/06/05 05:00:44;;;;;;;25.67;13.82;;;;;;;14.97;63.37;101710.16;5176738;28;20414;-55
2022/06/05 05:03:18;;;;;;;21.80;14.27;;;;;;;14.83;63.37;101680.66;5176242;28;20419;-56
2022/06/05 05:05:51;;;;;;;21.73;14.40;;;;;;;15.01;63.26;101721.31;5176426;28;20435;-52
2022/06/05 05:08:23;;;;;;;30.25;13.55;;;;;;;15.04;63.26;101699.72;5174302;28;20419;-56
2022/06/05 05:10:56;;;;;;;20.92;14.98;;;;;;;15.03;63.31;101692.75;5174442;28;20460;-52
2022/06/05 05:13:28;;;;;;;18.48;13.20;;;;;;;15.13;63.12;101689.97;5177078;28;20524;-57
2022/06/05 05:16:01;;;;;;;20.40;13.48;;;;;;;15.17;63.07;101697.50;5179662;28;20416;-55
2022/06/05 05:18:34;;;;;;;22.23;13.13;;;;;;;15.10;63.06;101680.47;5176020;28;20454;-56
2022/06/05 05:21:09;;;;;;;20.63;14.70;;;;;;;15.25;62.96;101690.53;5177601;28;20423;-56
2022/06/05 05:23:43;;;;;;;25.02;14.82;;;;;;;15.33;63.03;101703.84;5176471;28;22851;-52
2022/06/05 05:26:18;;;;;;;16.70;13.27;;;;;;;15.31;62.88;101692.56;5177539;28;20502;-55
2022/06/05 05:28:50;;;;;;;23.27;13.98;;;;;;;15.34;62.99;101681.59;5179453;28;20882;-56
2022/06/05 05:31:26;;;;;;;24.58;14.05;;;;;;;15.15;62.97;101648.91;5176113;28;20435;-59
2022/06/05 05:34:01;;;;;;;19.95;13.82;;;;;;;15.38;63.11;101688.25;5175920;28;20454;-55
2022/06/05 05:36:33;;;;;;;23.95;15.00;;;;;;;15.37;63.10;101689.25;5178466;28;20443;-56
2022/06/05 05:42:08;;;;;;;20.00;14.20;;;;;;;15.37;63.06;101687.41;5174808;28;20419;-53
2022/06/05 05:44:44;;;;;;;21.90;13.87;;;;;;;15.44;63.03;101691.09;5178869;28;20511;-55
2022/06/05 05:47:19;;;;;;;19.85;13.63;;;;;;;15.46;62.83;101672.31;5175750;28;20895;-57
2022/06/05 05:49:55;;;;;;;20.25;13.40;;;;;;;15.58;62.75;101687.00;5172641;28;21013;-52
2022/06/05 05:52:30;;;;;;;16.48;13.15;;;;;;;15.70;62.51;101702.69;5176294;28;20415;-53
2022/06/05 05:55:02;;;;;;;20.87;14.00;;;;;;;15.68;62.43;101693.03;5178121;28;20793;-55
2022/06/05 05:57:35;;;;;;;18.98;12.80;;;;;;;15.79;62.47;101699.03;5175584;28;20742;-56
2022/06/05 06:00:12;;;;;;;21.83;13.15;;;;;;;15.88;62.35;101698.91;5174280;28;20462;-57
2022/06/05 06:02:45;;;;;;;17.00;13.32;;;;;;;15.69;62.48;101653.91;5176096;28;20883;-57
2022/06/05 06:05:19;;;;;;;18.45;13.20;;;;;;;15.90;62.36;101690.75;5175107;28;20435;-54
2022/06/05 06:07:52;;;;;;;18.00;12.63;;;;;;;15.86;62.32;101681.44;5175986;28;20504;-55
2022/06/05 06:10:24;;;;;;;18.67;13.68;;;;;;;15.89;62.37;101692.59;5173663;28;20400;-55
2022/06/05 06:12:56;;;;;;;18.13;13.32;;;;;;;15.75;62.46;101692.38;5178171;28;20863;-56
2022/06/05 06:15:29;;;;;;;20.50;13.75;;;;;;;15.86;62.46;101695.59;5178543;28;20415;-56
2022/06/05 06:18:01;;;;;;;22.00;13.80;;;;;;;15.88;62.24;101688.25;5178765;28;20481;-57
2022/06/05 06:20:40;;;;;;;23.55;13.73;;;;;;;15.88;62.22;101682.09;5183496;28;20538;-55
2022/06/05 06:23:12;;;;;;;16.73;13.20;;;;;;;15.87;62.30;101686.59;5181951;28;20477;-56
2022/06/05 06:25:45;;;;;;;22.85;13.10;;;;;;;15.85;62.20;101671.75;5185310;28;20720;-56
2022/06/05 06:28:17;;;;;;;19.15;13.32;;;;;;;15.87;62.27;101675.94;5182813;28;20883;-56
2022/06/05 06:30:50;;;;;;;18.08;12.57;;;;;;;15.89;62.21;101689.09;5186009;28;20427;-56
2022/06/05 06:33:22;;;;;;;18.33;13.60;;;;;;;15.93;62.11;101679.78;5182425;28;21875;-51
2022/06/05 06:35:56;;;;;;;19.92;13.43;;;;;;;15.96;61.97;101682.09;5182075;28;20416;-54
2022/06/05 06:38:28;;;;;;;21.27;12.85;;;;;;;15.98;61.95;101674.78;5139216;28;20749;-56
2022/06/05 06:41:02;;;;;;;20.77;13.20;;;;;;;16.00;61.90;101674.63;5147872;28;20947;-54
2022/06/05 06:43:35;;;;;;;25.48;13.57;;;;;;;15.81;61.97;101657.13;5143183;28;20414;-57
2022/06/05 06:46:08;;;;;;;23.47;13.63;;;;;;;15.99;61.93;101675.63;5152449;28;20421;-55
2022/06/05 06:48:41;;;;;;;18.33;13.45;;;;;;;16.01;61.90;101671.81;5149061;28;20465;-56
2022/06/05 06:51:16;;;;;;;22.73;14.13;;;;;;;15.98;61.87;101672.13;5145336;28;20432;-53
2022/06/05 06:53:49;;;;;;;21.45;15.02;;;;;;;15.95;61.95;101663.59;5143330;28;20454;-53
2022/06/05 06:56:24;;;;;;;21.17;15.25;;;;;;;16.02;62.15;101676.13;5145580;28;20418;-52
2022/06/05 06:58:59;;;;;;;22.00;15.30;;;;;;;16.03;61.82;101672.44;5141929;28;20835;-52
2022/06/05 07:01:32;;;;;;;21.33;16.67;;;;;;;16.05;61.79;101670.47;5146089;28;20428;-54
2022/06/05 07:04:04;;;;;;;21.25;15.40;;;;;;;16.02;61.96;101657.47;5145303;28;20426;-50
2022/06/05 07:06:38;;;;;;;22.60;15.60;;;;;;;16.07;61.92;101648.97;5144169;28;20767;-50
2022/06/05 07:09:13;;;;;;;24.85;15.45;;;;;;;16.04;62.14;101639.50;5154158;28;20914;-53
2022/06/05 07:11:46;;;;;;;22.13;16.42;;;;;;;16.03;62.05;101627.16;5144221;28;20462;-54
2022/06/05 07:14:18;;;;;;;22.17;15.55;;;;;;;16.06;61.94;101626.81;5144377;28;20775;-49
2022/06/05 07:16:50;;;;;;;36.30;17.17;;;;;;;16.02;62.27;101622.84;5147559;28;20419;-57
2022/06/05 07:19:23;;;;;;;24.63;16.60;;;;;;;16.06;62.25;101613.50;5143449;28;20446;-50
2022/06/05 07:21:56;;;;;;;22.63;17.58;;;;;;;16.18;62.17;101608.66;5146544;28;20481;-51
2022/06/05 07:24:29;;;;;;;23.85;16.25;;;;;;;16.26;62.25;101602.50;5146662;28;20789;-52
2022/06/05 07:27:01;;;;;;;23.88;17.00;;;;;;;16.36;62.12;101604.00;5141972;28;20504;-54
2022/06/05 07:29:34;;;;;;;22.35;15.77;;;;;;;16.46;62.08;101610.97;5153551;28;20476;-52
2022/06/05 07:32:07;;;;;;;19.90;15.18;;;;;;;16.52;62.14;101589.78;5151582;28;20994;-53
2022/06/05 07:34:39;;;;;;;19.20;15.45;;;;;;;16.60;62.09;101588.94;5154060;28;20458;-51
2022/06/05 07:37:14;;;;;;;19.95;14.82;;;;;;;16.57;62.26;101576.78;5175232;28;30023;-52
2022/06/05 07:39:46;;;;;;;21.65;14.63;;;;;;;16.65;62.32;101599.91;5188178;28;20410;-53
2022/06/05 07:42:19;;;;;;;20.15;13.95;;;;;;;16.69;62.38;101590.59;5191057;28;20514;-54
2022/06/05 07:44:51;;;;;;;22.90;15.02;;;;;;;16.68;62.32;101564.06;5186284;28;20490;-55
2022/06/05 07:47:24;;;;;;;20.92;14.63;;;;;;;16.82;62.35;101579.41;5179810;28;20424;-53
2022/06/05 07:49:56;;;;;;;19.48;13.40;;;;;;;16.77;62.33;101561.22;5181949;28;20411;-54
2022/06/05 07:55:26;;;;;;;23.60;13.88;;;;;;;16.96;62.31;101570.66;5181756;28;20754;-57
2022/06/05 07:58:00;;;;;;;21.27;13.33;;;;;;;17.08;62.00;101572.94;5179247;28;20472;-57
2022/06/05 08:00:51;;;;;;;19.80;13.70;;;;;;;17.16;61.63;101551.56;5190963;28;20490;-59
2022/06/05 08:03:23;;;;;;;20.85;13.25;;;;;;;17.28;61.45;101553.66;5168030;28;20428;-51
2022/06/05 08:05:55;;;;;;;18.95;13.30;;;;;;;17.38;61.58;101541.91;5148527;28;20440;-55
2022/06/05 08:08:29;;;;;;;19.83;12.05;;;;;;;17.52;61.08;101543.78;5172029;28;20763;-55
2022/06/05 08:11:06;;;;;;;19.00;13.43;;;;;;;17.60;61.28;101540.25;5173006;28;20496;-56
2022/06/05 08:13:38;;;;;;;17.20;13.10;;;;;;;17.63;61.20;101547.91;5170048;28;21039;-53
2022/06/05 08:16:13;;;;;;;18.27;12.77;;;;;;;17.72;61.09;101542.31;5172317;28;20502;-56
2022/06/05 08:18:46;;;;;;;18.10;12.18;;;;;;;17.84;60.87;101540.09;5170234;28;20925;-58
2022/06/05 08:21:19;;;;;;;17.58;12.43;;;;;;;17.76;60.48;101492.03;5172696;28;20510;-58
2022/06/05 08:23:53;;;;;;;17.73;12.48;;;;;;;18.21;60.43;101522.34;5169016;28;20488;-59
2022/06/05 08:26:25;;;;;;;15.95;11.45;;;;;;;18.57;59.93;101516.25;5156788;28;20415;-59
2022/06/05 08:28:57;;;;;;;15.25;11.68;;;;;;;18.97;59.65;101530.97;5172192;28;20963;-59
2022/06/05 08:31:32;;;;;;;14.98;11.05;;;;;;;19.27;59.42;101522.88;5178557;28;20416;-60
2022/06/05 08:34:06;;;;;;;14.60;11.63;;;;;;;19.48;58.90;101497.91;5177828;28;20470;-60
2022/06/05 08:36:38;;;;;;;15.27;10.75;;;;;;;19.92;58.64;101511.13;5174129;28;20934;-60
2022/06/05 08:42:12;;;;;;;14.50;9.37;;;;;;;20.25;57.94;101475.63;5176250;28;20527;-58
2022/06/05 08:44:51;;;;;;;14.07;9.32;;;;;;;20.62;57.70;101506.59;5173878;28;20516;-61
2022/06/05 08:47:31;;;;;;;12.90;8.75;;;;;;;20.83;57.31;101496.75;5177848;28;20518;-60
2022/06/05 08:50:12;;;;;;;16.48;10.02;;;;;;;21.15;56.72;101496.03;5171735;28;20432;-60
2022/06/05 08:52:51;;;;;;;18.33;8.90;;;;;;;21.21;56.51;101486.31;5171352;28;20427;-61
2022/06/05 08:55:32;;;;;;;13.93;9.25;;;;;;;21.29;56.40;101485.31;5168255;28;20419;-55
2022/06/05 08:58:12;;;;;;;11.73;9.02;;;;;;;21.33;56.01;101481.16;5184757;28;20435;-59
2022/06/05 09:00:49;;;;;;;14.10;9.23;;;;;;;21.30;55.79;101470.81;5184583;28;20422;-58
2022/06/05 09:03:30;;;;;;;14.45;9.82;;;;;;;21.37;55.54;101474.41;5188675;28;20427;-58
2022/06/05 09:06:10;;;;;;;14.27;9.77;;;;;;;21.39;55.26;101464.25;5183982;28;20414;-60
2022/06/05 09:08:44;;;;;;;14.90;9.57;;;;;;;21.49;54.94;101469.22;5176649;28;23219;-59
2022/06/05 09:11:31;;;;;;;12.63;9.25;;;;;;;21.64;54.62;101456.38;5177300;28;20426;-61
2022/06/05 09:14:09;;;;;;;12.40;9.32;;;;;;;21.59;54.30;101454.34;5160731;28;20435;-60
2022/06/05 09:16:50;;;;;;;13.43;9.73;;;;;;;21.71;53.91;101459.06;5179947;28;20428;-59
2022/06/05 09:19:26;;;;;;;14.67;10.50;;;;;;;21.80;53.82;101465.88;5171166;28;20529;-57
2022/06/05 09:22:09;;;;;;;12.10;9.40;;;;;;;21.81;53.37;101456.81;5173858;28;20411;-60
2022/06/05 09:25:20;;;;;;;13.18;10.27;;;;;;;21.92;53.19;101458.00;5161789;28;20841;-60
2022/06/05 09:28:08;;;;;;;12.32;9.55;;;;;;;21.50;53.21;101431.41;5186724;28;20502;-56
2022/06/05 09:30:51;;;;;;;15.10;10.13;;;;;;;21.57;53.26;101451.03;5190092;28;20417;-61
2022/06/05 09:33:30;;;;;;;13.77;10.03;;;;;;;21.42;53.02;101436.97;5182313;28;20612;-56
2022/06/05 09:36:08;;;;;;;16.27;11.73;;;;;;;21.32;53.16;101447.28;5186886;28;20851;-59
2022/06/05 09:38:43;;;;;;;14.93;10.82;;;;;;;21.33;52.89;101448.91;5192162;28;20434;-60
2022/06/05 09:41:34;;;;;;;16.00;10.85;;;;;;;21.32;52.97;101436.53;5189538;28;20431;-59
2022/06/05 09:44:24;;;;;;;17.30;10.27;;;;;;;21.39;52.64;101437.38;5184376;28;20426;-59
2022/06/05 09:47:00;;;;;;;16.92;11.05;;;;;;;21.40;52.59;101431.81;5184367;28;20522;-59
2022/06/05 09:49:38;;;;;;;15.60;10.57;;;;;;;21.41;52.57;101429.94;5186769;28;20432;-62
2022/06/05 09:52:16;;;;;;;15.17;10.63;;;;;;;21.54;52.42;101429.94;5189258;28;20465;-59
2022/06/05 09:54:55;;;;;;;15.73;11.40;;;;;;;21.56;52.30;101427.88;5185179;28;20419;-59
2022/06/05 10:00:53;;;;;;;16.65;11.40;;;;;;;21.48;52.26;101436.16;5176472;28;20421;-58
2022/06/05 10:03:36;;;;;;;15.77;10.13;;;;;;;21.51;52.38;101433.03;5182524;28;20477;-59
2022/06/05 10:06:24;;;;;;;13.35;10.00;;;;;;;21.72;51.97;101432.00;5179880;28;20499;-59
2022/06/05 10:09:05;;;;;;;13.82;10.30;;;;;;;21.85;51.67;101431.97;5164638;28;20413;-56
2022/06/05 10:11:46;;;;;;;15.98;10.95;;;;;;;21.88;51.73;101447.69;5170724;28;20444;-61
2022/06/05 10:14:39;;;;;;;16.33;11.13;;;;;;;21.87;51.69;101446.03;5169383;28;20427;-59
2022/06/05 10:17:28;;;;;;;14.63;11.20;;;;;;;21.92;51.61;101441.88;5166656;28;20877;-57
2022/06/05 10:20:33;;;;;;;16.25;10.70;;;;;;;22.18;51.40;101441.84;5174630;28;20460;-59
2022/06/05 10:23:35;;;;;;;15.50;11.43;;;;;;;22.56;50.77;101460.75;5168862;28;20425;-58
2022/06/05 10:26:31;;;;;;;13.50;11.48;;;;;;;22.71;50.74;101467.72;5170159;28;20417;-59
2022/06/05 10:29:18;;;;;;;12.60;9.93;;;;;;;22.83;50.50;101466.00;5168562;28;20440;-59
2022/06/05 10:32:02;;;;;;;16.02;10.98;;;;;;;23.07;50.15;101460.91;5168903;28;20429;-59
2022/06/05 10:34:44;;;;;;;16.92;11.43;;;;;;;23.17;49.95;101469.34;5166602;28;21191;-59
2022/06/05 10:37:24;;;;;;;14.48;10.77;;;;;;;23.10;49.90;101455.91;5158686;28;20417;-59
2022/06/05 10:40:13;;;;;;;16.17;11.95;;;;;;;23.04;49.95;101461.34;5156136;28;20503;-59
2022/06/05 10:42:56;;;;;;;14.50;11.52;;;;;;;23.00;50.03;101456.38;5175702;28;20462;-60
2022/06/05 10:45:50;;;;;;;15.63;12.05;;;;;;;22.92;49.95;101453.94;5169370;28;20428;-56
2022/06/05 10:48:47;;;;;;;17.65;11.98;;;;;;;22.72;50.21;101447.81;5170442;28;20405;-58
2022/06/05 10:51:32;;;;;;;16.30;12.07;;;;;;;22.68;50.01;101446.63;5163210;28;20619;-56
2022/06/05 10:54:22;;;;;;;17.25;12.23;;;;;;;22.67;50.12;101435.03;5181915;28;20432;-58
2022/06/05 10:57:00;;;;;;;15.60;11.10;;;;;;;23.00;49.72;101434.81;5179976;28;20486;-60
2022/06/05 10:59:45;;;;;;;16.42;11.88;;;;;;;23.09;49.25;101424.63;5177767;28;20954;-57
2022/06/05 11:02:47;;;;;;;15.47;11.70;;;;;;;23.06;49.50;101426.94;5177379;28;20434;-61
2022/06/05 11:05:43;;;;;;;14.93;11.98;;;;;;;22.83;49.71;101412.13;5167664;28;20404;-60
2022/06/05 11:08:29;;;;;;;16.52;12.68;;;;;;;22.88;49.84;101420.38;5170308;28;20417;-59
2022/06/05 11:14:14;;;;;;;17.40;12.68;;;;;;;22.73;49.92;101422.53;5167058;28;20405;-58
2022/06/05 11:16:54;;;;;;;15.07;12.13;;;;;;;22.55;50.01;101416.03;5166428;28;20757;-59
2022/06/05 11:19:42;;;;;;;17.50;10.07;;;;;;;22.77;49.69;101419.22;5166761;28;20435;-56
2022/06/05 11:22:17;;;;;;;15.60;11.38;;;;;;;22.83;49.71;101406.75;5170557;28;20400;-58
2022/06/05 11:24:56;;;;;;;14.80;11.55;;;;;;;22.78;49.66;101393.09;5173229;28;20536;-59
2022/06/05 11:27:34;;;;;;;14.20;10.88;;;;;;;22.85;49.58;101404.66;5166117;28;20405;-58
2022/06/05 11:30:18;;;;;;;16.75;11.45;;;;;;;22.80;49.61;101391.03;5176515;28;20431;-60
2022/06/05 11:32:59;;;;;;;17.67;11.88;;;;;;;22.97;49.47;101400.25;5166319;28;20940;-58
2022/06/05 11:35:40;;;;;;;14.20;10.63;;;;;;;22.95;49.46;101394.28;5152762;28;20960;-58
2022/06/05 11:38:26;;;;;;;14.23;12.20;;;;;;;23.06;49.47;101397.28;5171312;28;20428;-60
2022/06/05 11:41:05;;;;;;;17.95;10.50;;;;;;;22.82;49.47;101367.38;5163835;28;20495;-54
2022/06/05 11:43:40;;;;;;;20.23;12.37;;;;;;;23.16;49.39;101387.66;5169418;28;20504;-58
2022/06/05 11:46:23;;;;;;;14.70;11.23;;;;;;;23.35;49.07;101396.66;5166078;28;20428;-57
2022/06/05 11:49:06;;;;;;;14.65;11.25;;;;;;;23.54;48.95;101391.31;5167899;28;20801;-59
2022/06/05 11:51:57;;;;;;;14.57;11.25;;;;;;;23.61;48.82;101390.16;5156077;28;20504;-59
2022/06/05 11:54:41;;;;;;;15.30;10.55;;;;;;;23.79;48.63;101380.50;5163825;28;20801;-58
2022/06/05 11:57:22;;;;;;;13.93;10.80;;;;;;;23.86;48.40;101382.06;5172391;28;20442;-57
2022/06/05 12:00:01;;;;;;;14.70;10.75;;;;;;;23.93;48.27;101377.41;5166203;28;20428;-59
2022/06/05 12:02:54;;;;;;;17.05;11.27;;;;;;;24.09;48.19;101378.66;5171036;28;20864;-58
2022/06/05 12:05:44;;;;;;;13.57;9.75;;;;;;;24.29;47.80;101383.81;5163160;28;20468;-57
2022/06/05 12:08:22;;;;;;;15.43;11.02;;;;;;;24.31;47.83;101378.19;5163518;28;20584;-59
2022/06/05 12:11:01;;;;;;;15.45;10.07;;;;;;;24.24;47.95;101378.25;5164848;28;21013;-60
2022/06/05 12:14:08;;;;;;;17.17;12.13;;;;;;;24.11;47.95;101375.75;5178767;28;20636;-59
2022/06/05 12:16:47;;;;;;;15.07;11.50;;;;;;;23.50;48.28;101298.41;5167476;28;21008;-59